Time;durP1;ratioP1;P1;durP2;ratioP2;P2;SDS_P1;SDS_P2;PMS_P1;PMS_P2;Temp;Humidity;BMP_temperature;BMP_pressure;BME280_temperature;BME280_humidity;BME280_pressure;Samples;Min_cycle;Max_cycle;Signal;HPM_P1;HPM_P2
2024/04/08 00:01:25;;;;;;;3.08;1.40;;;;;;;;;;5411774;26;20011;-68
2024/04/08 00:03:52;;;;;;;3.08;1.55;;;;;;;;;;5409782;26;20073;-68
2024/04/08 00:06:23;;;;;;;3.35;1.27;;;;;;;;;;5409894;26;20085;-68
2024/04/08 00:08:50;;;;;;;2.67;1.60;;;;;;;;;;5407326;26;20010;-68
2024/04/08 00:11:20;;;;;;;3.38;1.30;;;;;;;;;;5404412;26;20414;-68
2024/04/08 00:13:48;;;;;;;3.47;1.63;;;;;;;;;;5408944;26;20076;-68
2024/04/08 00:16:18;;;;;;;1.38;1.27;;;;;;;;;;5411081;26;20097;-68
2024/04/08 00:18:48;;;;;;;5.20;1.50;;;;;;;;;;5408908;26;20041;-68
2024/04/08 00:21:19;;;;;;;5.57;1.58;;;;;;;;;;5410986;26;20004;-68
2024/04/08 00:23:46;;;;;;;3.17;1.63;;;;;;;;;;5410360;26;20463;-68
2024/04/08 00:26:16;;;;;;;3.05;1.48;;;;;;;;;;5410446;26;20015;-68
2024/04/08 00:28:44;;;;;;;3.08;1.60;;;;;;;;;;5410927;26;20161;-67
2024/04/08 00:31:14;;;;;;;3.40;1.30;;;;;;;;;;5410683;26;20003;-67
2024/04/08 00:33:41;;;;;;;4.20;1.60;;;;;;;;;;5407344;26;20011;-68
2024/04/08 00:36:15;;;;;;;5.72;1.52;;;;;;;;;;5404091;26;20450;-68
2024/04/08 00:38:42;;;;;;;3.75;1.55;;;;;;;;;;5410586;26;20360;-68
2024/04/08 00:41:12;;;;;;;2.67;1.45;;;;;;;;;;5407155;26;20016;-68
2024/04/08 00:43:40;;;;;;;5.00;1.45;;;;;;;;;;5411658;26;20006;-67
2024/04/08 00:46:16;;;;;;;1.95;1.30;;;;;;;;;;5410712;26;20389;-68
2024/04/08 00:48:46;;;;;;;3.25;1.25;;;;;;;;;;5411872;26;20072;-68
2024/04/08 00:51:19;;;;;;;2.70;1.20;;;;;;;;;;5410595;26;20019;-68
2024/04/08 00:53:49;;;;;;;2.33;1.42;;;;;;;;;;5409995;26;20000;-68
2024/04/08 00:56:20;;;;;;;1.55;1.10;;;;;;;;;;5410426;26;20004;-68
2024/04/08 00:58:48;;;;;;;1.70;1.23;;;;;;;;;;5411143;26;20003;-68
2024/04/08 01:01:18;;;;;;;3.65;1.60;;;;;;;;;;5409049;26;20037;-68
2024/04/08 01:03:46;;;;;;;3.10;1.25;;;;;;;;;;5400186;26;20007;-68
2024/04/08 01:06:19;;;;;;;3.92;1.50;;;;;;;;;;5408824;26;20432;-68
2024/04/08 01:08:46;;;;;;;2.17;1.42;;;;;;;;;;5405142;26;20008;-68
2024/04/08 01:11:16;;;;;;;5.32;1.67;;;;;;;;;;5402639;26;20094;-68
2024/04/08 01:13:44;;;;;;;3.22;1.42;;;;;;;;;;5402853;26;20019;-68
2024/04/08 01:16:14;;;;;;;2.60;1.55;;;;;;;;;;5400506;26;20000;-68
2024/04/08 01:18:42;;;;;;;4.35;1.70;;;;;;;;;;5408368;26;20004;-67
2024/04/08 01:21:12;;;;;;;1.70;1.60;;;;;;;;;;5408946;26;20018;-68
2024/04/08 01:23:42;;;;;;;1.88;1.40;;;;;;;;;;5410166;26;20076;-68
2024/04/08 01:26:13;;;;;;;3.00;1.42;;;;;;;;;;5410132;26;20084;-67
2024/04/08 01:28:40;;;;;;;2.30;1.42;;;;;;;;;;5410675;26;20325;-68
2024/04/08 01:31:11;;;;;;;2.58;1.48;;;;;;;;;;5408231;26;19999;-68
2024/04/08 01:33:40;;;;;;;2.55;1.50;;;;;;;;;;5409608;26;20014;-68
2024/04/08 01:36:11;;;;;;;1.48;1.35;;;;;;;;;;5403034;26;19996;-65
2024/04/08 01:38:41;;;;;;;4.53;1.33;;;;;;;;;;5411059;26;20012;-68
2024/04/08 01:41:12;;;;;;;2.10;1.50;;;;;;;;;;5409481;26;20080;-68
2024/04/08 01:43:39;;;;;;;4.30;1.80;;;;;;;;;;5410005;26;20000;-65
2024/04/08 01:46:14;;;;;;;4.47;1.48;;;;;;;;;;5410650;26;20007;-67
2024/04/08 01:48:41;;;;;;;3.22;1.58;;;;;;;;;;5409991;26;20015;-67
2024/04/08 01:51:12;;;;;;;1.83;1.60;;;;;;;;;;5411186;26;19999;-68
2024/04/08 01:53:42;;;;;;;4.05;1.45;;;;;;;;;;5410132;26;20463;-68
2024/04/08 01:56:12;;;;;;;1.90;1.50;;;;;;;;;;5409579;26;20003;-68
2024/04/08 01:58:40;;;;;;;2.47;1.55;;;;;;;;;;5411141;26;20437;-68
2024/04/08 02:01:10;;;;;;;2.35;1.55;;;;;;;;;;5408936;26;20429;-67
2024/04/08 02:03:37;;;;;;;1.73;1.45;;;;;;;;;;5407067;26;20014;-68
2024/04/08 02:06:07;;;;;;;2.22;1.50;;;;;;;;;;5408082;26;20015;-68
2024/04/08 02:08:35;;;;;;;2.90;1.50;;;;;;;;;;5391736;26;20085;-68
2024/04/08 02:11:08;;;;;;;2.97;1.67;;;;;;;;;;5399587;26;20341;-67
2024/04/08 02:13:35;;;;;;;4.53;1.58;;;;;;;;;;5381779;26;20004;-68
2024/04/08 02:16:07;;;;;;;3.40;1.38;;;;;;;;;;5405961;26;20004;-68
2024/04/08 02:18:35;;;;;;;3.42;1.50;;;;;;;;;;5401185;26;20082;-65
2024/04/08 02:21:05;;;;;;;5.25;1.60;;;;;;;;;;5409863;26;20000;-68
2024/04/08 02:23:33;;;;;;;3.67;1.38;;;;;;;;;;5404304;26;20530;-68
2024/04/08 02:26:03;;;;;;;1.75;1.65;;;;;;;;;;5399476;26;20003;-68
2024/04/08 02:28:33;;;;;;;2.72;1.45;;;;;;;;;;5404724;26;20011;-68
2024/04/08 02:31:04;;;;;;;2.55;1.45;;;;;;;;;;5405460;26;20038;-68
2024/04/08 02:33:32;;;;;;;3.42;1.60;;;;;;;;;;5406221;26;20008;-68
2024/04/08 02:36:05;;;;;;;3.53;1.90;;;;;;;;;;5406805;26;20088;-69
2024/04/08 02:38:32;;;;;;;2.83;2.35;;;;;;;;;;5409046;26;20344;-66
2024/04/08 02:41:03;;;;;;;2.75;1.35;;;;;;;;;;5409679;26;20511;-68
2024/04/08 02:43:30;;;;;;;3.17;1.23;;;;;;;;;;5412404;26;20069;-68
2024/04/08 02:46:04;;;;;;;4.85;1.40;;;;;;;;;;5413197;26;20000;-67
2024/04/08 02:48:31;;;;;;;2.90;1.50;;;;;;;;;;5409234;26;20003;-68
2024/04/08 02:51:01;;;;;;;4.45;1.40;;;;;;;;;;5413070;26;20460;-68
2024/04/08 02:53:29;;;;;;;5.13;1.50;;;;;;;;;;5412127;26;20015;-68
2024/04/08 02:56:04;;;;;;;4.10;1.17;;;;;;;;;;5412968;26;20036;-68
2024/04/08 02:58:34;;;;;;;2.63;1.40;;;;;;;;;;5412253;26;20305;-68
2024/04/08 03:01:10;;;;;;;4.55;1.50;;;;;;;;;;5412147;26;20014;-68
2024/04/08 03:03:38;;;;;;;2.85;1.40;;;;;;;;;;5410122;26;20004;-68
2024/04/08 03:06:12;;;;;;;2.42;1.30;;;;;;;;;;5411579;26;20085;-68
2024/04/08 03:08:40;;;;;;;3.27;1.50;;;;;;;;;;5412132;26;20433;-68
2024/04/08 03:11:10;;;;;;;1.90;1.27;;;;;;;;;;5414150;26;20080;-68
2024/04/08 03:13:40;;;;;;;2.28;1.25;;;;;;;;;;5413402;26;20019;-68
2024/04/08 03:16:12;;;;;;;3.10;1.27;;;;;;;;;;5411568;26;20000;-67
2024/04/08 03:18:40;;;;;;;2.88;1.50;;;;;;;;;;5413119;26;20003;-68
2024/04/08 03:21:10;;;;;;;3.05;1.52;;;;;;;;;;5412635;26;20029;-68
2024/04/08 03:23:38;;;;;;;5.45;1.73;;;;;;;;;;5413513;26;20016;-68
2024/04/08 03:26:12;;;;;;;2.63;1.13;;;;;;;;;;5411434;26;20003;-68
2024/04/08 03:28:39;;;;;;;2.93;1.43;;;;;;;;;;5399641;26;20003;-68
2024/04/08 03:31:13;;;;;;;4.18;1.20;;;;;;;;;;5401697;26;21173;-68
2024/04/08 03:33:40;;;;;;;2.40;1.50;;;;;;;;;;5399851;26;20026;-68
2024/04/08 03:36:11;;;;;;;1.65;1.30;;;;;;;;;;5402783;26;19999;-67
2024/04/08 03:38:41;;;;;;;2.50;1.10;;;;;;;;;;5402317;26;20019;-67
2024/04/08 03:41:11;;;;;;;4.05;1.50;;;;;;;;;;5402262;26;20484;-65
2024/04/08 03:43:41;;;;;;;4.15;1.33;;;;;;;;;;5400712;26;20081;-65
2024/04/08 03:46:14;;;;;;;3.95;1.13;;;;;;;;;;5397023;26;20008;-65
2024/04/08 03:48:42;;;;;;;2.88;0.93;;;;;;;;;;5406311;26;20609;-64
2024/04/08 03:51:12;;;;;;;3.28;1.35;;;;;;;;;;5407917;26;20014;-65
2024/04/08 03:53:40;;;;;;;2.63;1.10;;;;;;;;;;5408230;26;20023;-65
2024/04/08 03:56:11;;;;;;;4.18;1.02;;;;;;;;;;5411808;26;20014;-65
2024/04/08 03:58:39;;;;;;;2.60;1.25;;;;;;;;;;5412393;26;20003;-65
2024/04/08 04:01:11;;;;;;;2.40;1.02;;;;;;;;;;5407314;26;20000;-66
2024/04/08 04:03:41;;;;;;;4.05;1.58;;;;;;;;;;5408214;26;20080;-65
2024/04/08 04:06:11;;;;;;;4.18;1.20;;;;;;;;;;5411644;26;20043;-64
2024/04/08 04:08:39;;;;;;;3.92;1.40;;;;;;;;;;5397060;26;20081;-66
2024/04/08 04:11:10;;;;;;;5.22;1.30;;;;;;;;;;5408662;26;20018;-66
2024/04/08 04:13:37;;;;;;;3.08;1.30;;;;;;;;;;5403360;26;20004;-65
2024/04/08 04:16:08;;;;;;;7.53;1.50;;;;;;;;;;5405144;26;19995;-66
2024/04/08 04:18:35;;;;;;;2.38;1.20;;;;;;;;;;5411887;26;20409;-65
2024/04/08 04:21:08;;;;;;;3.72;1.30;;;;;;;;;;5410903;26;20085;-65
2024/04/08 04:23:36;;;;;;;3.17;1.60;;;;;;;;;;5405204;26;20016;-65
2024/04/08 04:26:07;;;;;;;2.58;1.58;;;;;;;;;;5411964;26;20011;-66
2024/04/08 04:28:34;;;;;;;3.70;1.40;;;;;;;;;;5411633;26;20015;-65
2024/04/08 04:31:04;;;;;;;6.13;1.40;;;;;;;;;;5408873;26;20008;-65
2024/04/08 04:33:32;;;;;;;2.95;1.40;;;;;;;;;;5410023;26;20126;-65
2024/04/08 04:36:03;;;;;;;7.72;1.67;;;;;;;;;;5409228;26;20029;-65
2024/04/08 04:38:33;;;;;;;4.80;1.50;;;;;;;;;;5409677;26;20057;-65
2024/04/08 04:41:04;;;;;;;4.50;1.50;;;;;;;;;;5411889;26;20012;-66
2024/04/08 04:43:31;;;;;;;4.57;1.50;;;;;;;;;;5410804;26;20464;-65
2024/04/08 04:46:01;;;;;;;4.25;1.50;;;;;;;;;;5410757;26;20012;-65
2024/04/08 04:48:29;;;;;;;4.10;1.70;;;;;;;;;;5411596;26;20452;-65
2024/04/08 04:50:59;;;;;;;4.55;1.55;;;;;;;;;;5410226;26;20004;-65
2024/04/08 04:53:27;;;;;;;4.30;1.70;;;;;;;;;;5409575;26;20351;-65
2024/04/08 04:56:00;;;;;;;4.55;1.52;;;;;;;;;;5409351;26;20003;-65
2024/04/08 04:58:28;;;;;;;3.47;1.30;;;;;;;;;;5411122;26;19996;-65
2024/04/08 05:00:58;;;;;;;6.22;1.60;;;;;;;;;;5411516;26;20012;-65
2024/04/08 05:03:26;;;;;;;6.25;1.95;;;;;;;;;;5410241;26;20333;-65
2024/04/08 05:05:56;;;;;;;5.70;1.80;;;;;;;;;;5406804;26;20011;-66
2024/04/08 05:08:24;;;;;;;2.58;1.40;;;;;;;;;;5409267;26;20489;-65
2024/04/08 05:10:54;;;;;;;4.53;1.40;;;;;;;;;;5402717;26;20000;-65
2024/04/08 05:13:24;;;;;;;5.25;1.30;;;;;;;;;;5403397;26;20026;-65
2024/04/08 05:15:58;;;;;;;3.55;1.58;;;;;;;;;;5405515;26;19999;-65
2024/04/08 05:18:27;;;;;;;1.85;1.15;;;;;;;;;;5405057;26;20456;-65
2024/04/08 05:20:57;;;;;;;2.75;1.20;;;;;;;;;;5409632;26;20376;-65
2024/04/08 05:23:29;;;;;;;5.10;1.60;;;;;;;;;;5409910;26;20135;-66
2024/04/08 05:25:59;;;;;;;6.78;1.60;;;;;;;;;;5410308;26;20004;-67
2024/04/08 05:28:29;;;;;;;8.52;1.83;;;;;;;;;;5410156;26;20014;-67
2024/04/08 05:31:00;;;;;;;4.32;1.50;;;;;;;;;;5410058;26;20078;-67
2024/04/08 05:33:27;;;;;;;6.35;1.75;;;;;;;;;;5410426;26;20011;-67
2024/04/08 05:35:57;;;;;;;7.10;2.28;;;;;;;;;;5408498;26;20402;-67
2024/04/08 05:38:25;;;;;;;6.18;1.70;;;;;;;;;;5397995;26;20008;-66
2024/04/08 05:40:56;;;;;;;4.57;1.52;;;;;;;;;;5410038;26;20108;-67
2024/04/08 05:43:23;;;;;;;5.82;2.05;;;;;;;;;;5408136;26;20007;-67
2024/04/08 05:45:56;;;;;;;4.90;1.70;;;;;;;;;;5409805;26;20004;-67
2024/04/08 05:48:23;;;;;;;5.65;1.83;;;;;;;;;;5411605;26;20011;-67
2024/04/08 05:50:54;;;;;;;4.72;2.13;;;;;;;;;;5412427;26;20004;-66
2024/04/08 05:53:21;;;;;;;5.25;2.05;;;;;;;;;;5410339;26;20014;-66
2024/04/08 05:55:52;;;;;;;3.70;1.58;;;;;;;;;;5409687;26;20008;-66
2024/04/08 05:58:19;;;;;;;2.47;1.27;;;;;;;;;;5405709;26;20038;-65
2024/04/08 06:00:49;;;;;;;5.60;1.50;;;;;;;;;;5411218;26;20402;-67
2024/04/08 06:03:20;;;;;;;4.90;1.33;;;;;;;;;;5411709;26;20015;-67
2024/04/08 06:05:50;;;;;;;3.95;1.50;;;;;;;;;;5409608;26;20007;-66
2024/04/08 06:08:17;;;;;;;4.35;1.58;;;;;;;;;;5389970;26;20000;-66
2024/04/08 06:10:50;;;;;;;8.65;1.67;;;;;;;;;;5390288;26;20078;-66
2024/04/08 06:13:18;;;;;;;3.05;1.25;;;;;;;;;;5379774;26;20001;-66
2024/04/08 06:15:48;;;;;;;4.07;1.25;;;;;;;;;;5399027;26;20453;-66
2024/04/08 06:18:16;;;;;;;2.25;1.38;;;;;;;;;;5401904;26;20011;-66
2024/04/08 06:20:55;;;;;;;6.45;1.60;;;;;;;;;;5410113;26;20415;-66
2024/04/08 06:23:23;;;;;;;7.93;2.15;;;;;;;;;;5409124;26;20015;-66
2024/04/08 06:25:59;;;;;;;5.68;1.80;;;;;;;;;;5418447;26;20004;-66
2024/04/08 06:28:27;;;;;;;6.68;2.13;;;;;;;;;;5403490;26;20011;-66
2024/04/08 06:30:57;;;;;;;4.05;1.48;;;;;;;;;;5419814;26;20513;-66
2024/04/08 06:33:25;;;;;;;5.35;1.50;;;;;;;;;;5407010;26;20031;-64
2024/04/08 06:36:01;;;;;;;7.78;1.98;;;;;;;;;;5426652;26;20063;-66
2024/04/08 06:38:28;;;;;;;6.70;1.58;;;;;;;;;;5426622;26;20017;-66
2024/04/08 06:40:58;;;;;;;5.90;1.90;;;;;;;;;;5432902;26;20019;-66
2024/04/08 06:43:26;;;;;;;5.32;1.75;;;;;;;;;;5409849;26;20004;-65
2024/04/08 06:46:00;;;;;;;4.18;1.65;;;;;;;;;;5424409;26;19999;-66
2024/04/08 06:48:28;;;;;;;6.20;1.90;;;;;;;;;;5415527;26;20032;-66
2024/04/08 06:51:01;;;;;;;7.45;1.88;;;;;;;;;;5433019;26;20419;-66
2024/04/08 06:53:28;;;;;;;6.68;1.98;;;;;;;;;;5413056;26;20019;-66
2024/04/08 06:55:59;;;;;;;5.45;2.25;;;;;;;;;;5423499;26;20003;-66
2024/04/08 06:58:26;;;;;;;5.90;1.67;;;;;;;;;;5434569;26;20003;-66
2024/04/08 07:00:57;;;;;;;5.75;1.73;;;;;;;;;;5413724;26;20489;-66
2024/04/08 07:03:24;;;;;;;4.85;1.95;;;;;;;;;;5409276;26;20019;-66
2024/04/08 07:05:54;;;;;;;4.45;1.60;;;;;;;;;;5407686;26;20008;-66
2024/04/08 07:08:24;;;;;;;5.22;1.58;;;;;;;;;;5386423;26;20023;-66
2024/04/08 07:10:55;;;;;;;6.75;1.67;;;;;;;;;;5405499;26;20466;-66
2024/04/08 07:13:22;;;;;;;4.75;1.48;;;;;;;;;;5408888;26;20028;-66
2024/04/08 07:15:56;;;;;;;5.68;1.90;;;;;;;;;;5406584;26;19995;-66
2024/04/08 07:18:24;;;;;;;7.07;1.67;;;;;;;;;;5402349;26;20290;-66
2024/04/08 07:20:54;;;;;;;10.25;1.75;;;;;;;;;;5404703;26;20371;-66
2024/04/08 07:23:22;;;;;;;5.45;1.48;;;;;;;;;;5405458;26;20014;-65
2024/04/08 07:25:54;;;;;;;4.35;1.60;;;;;;;;;;5405150;26;20355;-66
2024/04/08 07:28:22;;;;;;;6.55;2.08;;;;;;;;;;5406865;26;20020;-65
2024/04/08 07:30:52;;;;;;;3.88;1.60;;;;;;;;;;5405964;26;20016;-66
2024/04/08 07:33:20;;;;;;;11.93;2.60;;;;;;;;;;5411247;26;20004;-66
2024/04/08 07:35:50;;;;;;;4.35;1.65;;;;;;;;;;5412001;26;20011;-66
2024/04/08 07:38:18;;;;;;;9.18;2.10;;;;;;;;;;5413830;26;20079;-66
2024/04/08 07:40:48;;;;;;;6.07;2.05;;;;;;;;;;5412151;26;20469;-66
2024/04/08 07:43:18;;;;;;;7.25;1.70;;;;;;;;;;5412796;26;20004;-66
2024/04/08 07:45:48;;;;;;;5.93;2.00;;;;;;;;;;5411655;26;20437;-66
2024/04/08 07:48:19;;;;;;;5.63;1.52;;;;;;;;;;5412570;26;20704;-66
2024/04/08 07:50:50;;;;;;;10.57;1.95;;;;;;;;;;5412996;26;20076;-66
2024/04/08 07:53:18;;;;;;;9.00;1.75;;;;;;;;;;5412754;26;20004;-65
2024/04/08 07:55:48;;;;;;;9.48;1.73;;;;;;;;;;5411170;26;19995;-65
2024/04/08 07:58:15;;;;;;;6.93;2.22;;;;;;;;;;5412086;26;20077;-66
2024/04/08 08:00:58;;;;;;;7.55;2.10;;;;;;;;;;5392515;26;20010;-66
2024/04/08 08:03:26;;;;;;;9.60;2.35;;;;;;;;;;5412594;26;20018;-65
2024/04/08 08:05:56;;;;;;;7.35;1.90;;;;;;;;;;5410885;26;20004;-66
2024/04/08 08:08:29;;;;;;;6.32;1.70;;;;;;;;;;5390004;26;20031;-66
2024/04/08 08:11:03;;;;;;;8.68;2.25;;;;;;;;;;5409188;26;20011;-65
2024/04/08 08:13:31;;;;;;;9.90;1.90;;;;;;;;;;5410524;26;20096;-66
2024/04/08 08:16:03;;;;;;;6.72;2.13;;;;;;;;;;5407636;26;20069;-65
2024/04/08 08:18:34;;;;;;;8.38;2.17;;;;;;;;;;5408102;26;20019;-66
2024/04/08 08:21:06;;;;;;;6.63;1.67;;;;;;;;;;5408559;26;20288;-66
2024/04/08 08:23:36;;;;;;;4.28;1.58;;;;;;;;;;5394110;26;20003;-66
2024/04/08 08:26:06;;;;;;;6.57;1.90;;;;;;;;;;5407828;26;20507;-66
2024/04/08 08:28:37;;;;;;;14.27;2.58;;;;;;;;;;5412585;26;20155;-66
2024/04/08 08:31:10;;;;;;;10.52;2.42;;;;;;;;;;5404272;26;19995;-66
2024/04/08 08:33:40;;;;;;;11.43;2.15;;;;;;;;;;5409564;26;20014;-66
2024/04/08 08:36:07;;;;;;;8.57;1.85;;;;;;;;;;5411091;26;20011;-65
2024/04/08 08:38:38;;;;;;;15.27;2.65;;;;;;;;;;5412242;26;20018;-65
2024/04/08 08:41:06;;;;;;;10.32;2.15;;;;;;;;;;5409903;26;20128;-65
2024/04/08 08:43:38;;;;;;;8.65;2.30;;;;;;;;;;5406017;26;20084;-66
2024/04/08 08:46:09;;;;;;;9.65;2.03;;;;;;;;;;5408502;26;20487;-66
2024/04/08 08:48:40;;;;;;;10.70;2.50;;;;;;;;;;5398399;26;20007;-66
2024/04/08 08:51:08;;;;;;;10.23;2.15;;;;;;;;;;5409336;26;19999;-65
2024/04/08 08:53:39;;;;;;;9.88;2.50;;;;;;;;;;5405767;26;20564;-66
2024/04/08 08:56:08;;;;;;;13.20;2.65;;;;;;;;;;5406434;26;20018;-66
2024/04/08 08:58:38;;;;;;;8.20;1.67;;;;;;;;;;5405425;26;20118;-65
2024/04/08 09:01:09;;;;;;;8.23;1.80;;;;;;;;;;5409400;26;20000;-65
2024/04/08 09:03:39;;;;;;;9.25;1.90;;;;;;;;;;5410829;26;20004;-65
2024/04/08 09:06:09;;;;;;;9.75;1.80;;;;;;;;;;5410616;26;19999;-65
2024/04/08 09:08:40;;;;;;;7.10;1.55;;;;;;;;;;5402250;26;20008;-65
2024/04/08 09:11:08;;;;;;;5.82;1.60;;;;;;;;;;5409096;26;20338;-65
2024/04/08 09:13:38;;;;;;;9.80;1.83;;;;;;;;;;5408093;26;20400;-66
2024/04/08 09:16:06;;;;;;;8.38;2.38;;;;;;;;;;5409247;26;20000;-66
2024/04/08 09:18:38;;;;;;;9.98;1.90;;;;;;;;;;5410852;26;20021;-66
2024/04/08 09:21:06;;;;;;;6.78;1.80;;;;;;;;;;5411250;26;20003;-66
2024/04/08 09:23:42;;;;;;;10.20;1.85;;;;;;;;;;5411965;26;20019;-66
2024/04/08 09:26:09;;;;;;;9.27;2.10;;;;;;;;;;5411481;26;20035;-66
2024/04/08 09:28:39;;;;;;;6.82;1.75;;;;;;;;;;5411038;26;20092;-66
2024/04/08 09:31:07;;;;;;;10.88;2.20;;;;;;;;;;5410431;26;20468;-66
2024/04/08 09:33:40;;;;;;;11.35;1.90;;;;;;;;;;5403568;26;20057;-65
2024/04/08 09:36:08;;;;;;;13.25;2.83;;;;;;;;;;5410654;26;20393;-65
2024/04/08 09:38:39;;;;;;;8.98;1.58;;;;;;;;;;5413196;26;20474;-65
2024/04/08 09:41:08;;;;;;;6.85;1.90;;;;;;;;;;5409167;26;20010;-65
2024/04/08 09:43:39;;;;;;;8.55;1.70;;;;;;;;;;5409256;26;20015;-65
2024/04/08 09:46:08;;;;;;;5.85;1.83;;;;;;;;;;5410718;26;19999;-64
2024/04/08 09:48:40;;;;;;;10.05;1.90;;;;;;;;;;5404443;26;20529;-65
2024/04/08 09:51:08;;;;;;;8.75;2.38;;;;;;;;;;5403924;26;20011;-65
2024/04/08 09:53:38;;;;;;;8.68;2.10;;;;;;;;;;5402701;26;20018;-65
2024/04/08 09:56:11;;;;;;;14.32;2.40;;;;;;;;;;5408259;26;20004;-65
2024/04/08 09:58:42;;;;;;;12.80;2.25;;;;;;;;;;5405813;26;20018;-65
2024/04/08 10:01:12;;;;;;;4.70;1.50;;;;;;;;;;5408736;26;19999;-65
2024/04/08 10:03:47;;;;;;;11.38;2.15;;;;;;;;;;5411412;26;20003;-65
2024/04/08 10:06:15;;;;;;;8.68;1.73;;;;;;;;;;5405810;26;20081;-65
2024/04/08 10:08:47;;;;;;;6.88;1.65;;;;;;;;;;5385890;26;20023;-65
2024/04/08 10:11:15;;;;;;;10.23;1.92;;;;;;;;;;5403870;26;20015;-65
2024/04/08 10:13:48;;;;;;;9.27;2.00;;;;;;;;;;5410751;26;20014;-65
2024/04/08 10:16:16;;;;;;;8.05;1.90;;;;;;;;;;5404282;26;20016;-65
2024/04/08 10:18:53;;;;;;;9.13;2.40;;;;;;;;;;5408919;26;19999;-66
2024/04/08 10:21:21;;;;;;;4.63;1.83;;;;;;;;;;5408575;26;20084;-65
2024/04/08 10:23:54;;;;;;;14.20;2.45;;;;;;;;;;5408987;26;20015;-64
2024/04/08 10:26:24;;;;;;;11.60;2.63;;;;;;;;;;5407679;26;20460;-69
2024/04/08 10:28:54;;;;;;;11.85;1.88;;;;;;;;;;5408124;26;20006;-69
2024/04/08 10:31:27;;;;;;;6.53;2.25;;;;;;;;;;5405580;26;20015;-66
2024/04/08 10:34:00;;;;;;;7.90;2.75;;;;;;;;;;5408702;26;20538;-67
2024/04/08 10:36:28;;;;;;;8.95;1.67;;;;;;;;;;5409230;26;20433;-67
2024/04/08 10:38:58;;;;;;;7.45;2.13;;;;;;;;;;5409425;26;20077;-67
2024/04/08 10:41:25;;;;;;;11.27;2.85;;;;;;;;;;5410854;26;20017;-67
2024/04/08 10:43:55;;;;;;;9.13;2.20;;;;;;;;;;5410719;26;20073;-67
2024/04/08 10:46:23;;;;;;;11.15;2.10;;;;;;;;;;5410066;26;20035;-67
2024/04/08 10:48:53;;;;;;;11.25;2.42;;;;;;;;;;5410899;26;20007;-66
2024/04/08 10:51:24;;;;;;;10.90;2.47;;;;;;;;;;5411715;26;20018;-67
2024/04/08 10:53:55;;;;;;;10.93;2.63;;;;;;;;;;5410177;26;20534;-67
2024/04/08 10:56:22;;;;;;;7.53;2.33;;;;;;;;;;5408981;26;20014;-67
2024/04/08 10:58:53;;;;;;;11.07;2.63;;;;;;;;;;5411064;26;19999;-67
2024/04/08 11:01:20;;;;;;;9.43;2.13;;;;;;;;;;5407850;26;20476;-67
2024/04/08 11:03:51;;;;;;;14.57;2.88;;;;;;;;;;5408906;26;20076;-67
2024/04/08 11:06:18;;;;;;;9.32;1.80;;;;;;;;;;5410029;26;20008;-67
2024/04/08 11:09:01;;;;;;;10.05;2.15;;;;;;;;;;5401839;26;20026;-67
2024/04/08 11:11:29;;;;;;;11.80;2.30;;;;;;;;;;5411582;26;20515;-67
2024/04/08 11:14:00;;;;;;;10.48;2.17;;;;;;;;;;5412479;26;20004;-66
2024/04/08 11:16:34;;;;;;;10.07;2.08;;;;;;;;;;5406924;26;20004;-67
2024/04/08 11:19:02;;;;;;;8.88;2.17;;;;;;;;;;5411576;26;20071;-67
2024/04/08 11:21:32;;;;;;;9.65;2.13;;;;;;;;;;5410832;26;20000;-67
2024/04/08 11:24:02;;;;;;;8.70;1.90;;;;;;;;;;5410376;26;20026;-67
2024/04/08 11:26:33;;;;;;;10.57;1.95;;;;;;;;;;5410904;26;19999;-67
2024/04/08 11:29:03;;;;;;;11.60;2.40;;;;;;;;;;5413375;26;20011;-67
2024/04/08 11:31:33;;;;;;;12.20;3.05;;;;;;;;;;5413182;26;20084;-67
2024/04/08 11:34:00;;;;;;;10.63;2.20;;;;;;;;;;5413410;26;20004;-67
2024/04/08 11:36:31;;;;;;;8.48;1.90;;;;;;;;;;5415122;26;20003;-67
2024/04/08 11:38:59;;;;;;;7.75;2.08;;;;;;;;;;5437134;26;20007;-67
2024/04/08 11:41:32;;;;;;;10.70;2.10;;;;;;;;;;5442157;26;20014;-67
2024/04/08 11:43:59;;;;;;;18.35;2.78;;;;;;;;;;5438986;26;20003;-67
2024/04/08 11:46:30;;;;;;;6.97;2.22;;;;;;;;;;5423839;26;20400;-67
2024/04/08 11:48:58;;;;;;;14.13;2.13;;;;;;;;;;5437408;26;20039;-66
2024/04/08 11:51:29;;;;;;;13.30;3.03;;;;;;;;;;5425518;26;20077;-67
2024/04/08 11:53:56;;;;;;;8.43;2.00;;;;;;;;;;5412715;26;20019;-67
2024/04/08 11:56:27;;;;;;;10.45;2.25;;;;;;;;;;5424336;26;20003;-67
2024/04/08 11:58:57;;;;;;;10.25;2.20;;;;;;;;;;5425437;26;20003;-67
2024/04/08 12:01:27;;;;;;;13.40;2.60;;;;;;;;;;5411542;26;20445;-67
2024/04/08 12:03:55;;;;;;;13.65;3.00;;;;;;;;;;5412447;26;20004;-67
2024/04/08 12:06:25;;;;;;;11.75;2.70;;;;;;;;;;5407989;26;20076;-67
2024/04/08 12:08:52;;;;;;;14.73;2.60;;;;;;;;;;5413093;26;20022;-67
2024/04/08 12:11:23;;;;;;;14.00;3.20;;;;;;;;;;5413501;26;20053;-67
2024/04/08 12:13:51;;;;;;;9.00;2.42;;;;;;;;;;5413720;26;20015;-66
2024/04/08 12:16:25;;;;;;;8.18;2.83;;;;;;;;;;5410971;26;20448;-67
2024/04/08 12:18:53;;;;;;;18.55;2.97;;;;;;;;;;5410984;26;20018;-67
2024/04/08 12:21:23;;;;;;;13.95;2.30;;;;;;;;;;5410206;26;20011;-64
2024/04/08 12:23:53;;;;;;;10.35;2.40;;;;;;;;;;5413549;26;19999;-64
2024/04/08 12:26:23;;;;;;;10.00;2.20;;;;;;;;;;5412901;26;20022;-64
2024/04/08 12:28:51;;;;;;;14.73;2.78;;;;;;;;;;5402467;26;20457;-64
2024/04/08 12:31:24;;;;;;;9.52;2.28;;;;;;;;;;5410300;26;20000;-64
2024/04/08 12:33:54;;;;;;;11.13;2.00;;;;;;;;;;5412638;26;20497;-65
2024/04/08 12:36:22;;;;;;;13.00;2.65;;;;;;;;;;5412174;26;20428;-64
2024/04/08 12:38:52;;;;;;;10.55;2.10;;;;;;;;;;5413586;26;20577;-63
2024/04/08 12:41:22;;;;;;;9.73;2.60;;;;;;;;;;5412346;26;20426;-64
2024/04/08 12:43:54;;;;;;;11.68;2.28;;;;;;;;;;5412168;26;20387;-63
2024/04/08 12:46:25;;;;;;;13.55;2.38;;;;;;;;;;5410657;26;20019;-63
2024/04/08 12:48:55;;;;;;;10.18;2.35;;;;;;;;;;5407645;26;20341;-63
2024/04/08 12:51:22;;;;;;;15.05;2.40;;;;;;;;;;5410940;26;20000;-64
2024/04/08 12:53:53;;;;;;;12.40;2.20;;;;;;;;;;5408675;26;20019;-64
2024/04/08 12:56:20;;;;;;;12.55;2.20;;;;;;;;;;5403866;26;20030;-64
2024/04/08 12:58:55;;;;;;;8.25;1.95;;;;;;;;;;5405170;26;20092;-62
2024/04/08 13:01:26;;;;;;;8.68;2.50;;;;;;;;;;5406113;26;20023;-63
2024/04/08 13:03:57;;;;;;;9.60;2.35;;;;;;;;;;5395817;26;20453;-64
2024/04/08 13:06:25;;;;;;;17.55;2.67;;;;;;;;;;5407751;26;20018;-64
2024/04/08 13:08:55;;;;;;;13.52;2.78;;;;;;;;;;5402741;26;20039;-64
2024/04/08 13:11:23;;;;;;;15.48;2.53;;;;;;;;;;5404136;26;20016;-65
2024/04/08 13:13:53;;;;;;;14.02;2.20;;;;;;;;;;5411314;26;20023;-64
2024/04/08 13:16:21;;;;;;;12.48;2.40;;;;;;;;;;5406577;26;20080;-64
2024/04/08 13:18:55;;;;;;;16.55;2.28;;;;;;;;;;5409105;26;20335;-64
2024/04/08 13:21:24;;;;;;;11.27;2.40;;;;;;;;;;5406178;26;20007;-64
2024/04/08 13:23:55;;;;;;;12.35;2.67;;;;;;;;;;5405102;26;20014;-64
2024/04/08 13:26:22;;;;;;;13.20;2.40;;;;;;;;;;5406357;26;20008;-63
2024/04/08 13:28:52;;;;;;;9.23;2.17;;;;;;;;;;5410259;26;20010;-64
2024/04/08 13:31:20;;;;;;;10.63;3.00;;;;;;;;;;5408933;26;20020;-64
2024/04/08 13:33:53;;;;;;;12.63;3.20;;;;;;;;;;5409341;26;20015;-64
2024/04/08 13:36:21;;;;;;;11.93;2.45;;;;;;;;;;5389942;26;20453;-64
2024/04/08 13:38:51;;;;;;;13.00;2.35;;;;;;;;;;5409110;26;20039;-64
2024/04/08 13:41:18;;;;;;;9.82;2.70;;;;;;;;;;5408093;26;20489;-64
2024/04/08 13:43:49;;;;;;;10.15;2.60;;;;;;;;;;5409179;26;20012;-64
2024/04/08 13:46:16;;;;;;;13.65;2.55;;;;;;;;;;5408221;26;20000;-64
2024/04/08 13:48:47;;;;;;;11.85;2.75;;;;;;;;;;5408185;26;20033;-63
2024/04/08 13:51:17;;;;;;;11.07;2.75;;;;;;;;;;5409898;26;20563;-64
2024/04/08 13:53:47;;;;;;;11.25;2.40;;;;;;;;;;5406520;26;20004;-64
2024/04/08 13:56:15;;;;;;;11.15;2.42;;;;;;;;;;5408150;26;20000;-64
2024/04/08 13:58:49;;;;;;;16.70;2.85;;;;;;;;;;5398557;26;20053;-64
2024/04/08 14:01:16;;;;;;;9.57;2.20;;;;;;;;;;5398283;26;20003;-64
2024/04/08 14:03:47;;;;;;;12.02;2.53;;;;;;;;;;5388105;26;20004;-64
2024/04/08 14:06:18;;;;;;;14.90;2.55;;;;;;;;;;5381356;26;20035;-63
2024/04/08 14:08:48;;;;;;;11.35;2.33;;;;;;;;;;5405195;26;20008;-63
2024/04/08 14:11:15;;;;;;;10.73;2.40;;;;;;;;;;5409940;26;20449;-63
2024/04/08 14:13:46;;;;;;;10.77;2.75;;;;;;;;;;5412259;26;20461;-63
2024/04/08 14:16:13;;;;;;;9.80;2.38;;;;;;;;;;5405547;26;20640;-63
2024/04/08 14:18:44;;;;;;;7.40;1.92;;;;;;;;;;5411090;26;20004;-65
2024/04/08 14:21:11;;;;;;;14.43;2.70;;;;;;;;;;5410351;26;20040;-64
2024/04/08 14:23:44;;;;;;;10.98;2.97;;;;;;;;;;5409693;26;20021;-63
2024/04/08 14:26:12;;;;;;;10.63;2.40;;;;;;;;;;5410574;26;20529;-63
2024/04/08 14:28:44;;;;;;;14.35;2.70;;;;;;;;;;5409424;26;20817;-63
2024/04/08 14:31:11;;;;;;;8.25;2.20;;;;;;;;;;5409984;26;19996;-63
2024/04/08 14:33:42;;;;;;;12.20;2.38;;;;;;;;;;5410334;26;20081;-64
2024/04/08 14:36:10;;;;;;;10.98;2.70;;;;;;;;;;5408016;26;20011;-63
2024/04/08 14:38:40;;;;;;;12.02;2.90;;;;;;;;;;5410666;26;20007;-63
2024/04/08 14:41:31;;;;;;;12.38;2.55;;;;;;;;;;5404564;26;20003;-64
2024/04/08 14:44:01;;;;;;;11.98;2.60;;;;;;;;;;5413653;26;20011;-64
2024/04/08 14:46:38;;;;;;;13.50;2.95;;;;;;;;;;5413611;26;20341;-64
2024/04/08 14:49:09;;;;;;;14.02;2.45;;;;;;;;;;5414302;26;20003;-63
2024/04/08 14:51:37;;;;;;;11.63;2.28;;;;;;;;;;5406015;26;20336;-64
2024/04/08 14:54:11;;;;;;;8.93;2.47;;;;;;;;;;5406054;26;20015;-65